This is the latest recevied weather packets stored in our database for station/object CA4LJZ-10. If no packets are shown the sender has not sent any weather packets the latest 10 day(s).
| Time | Temp. | Humidity | Pressure | Rain* | Wind** | Luminosity | Snow |
|---|---|---|---|---|---|---|---|
| 1777409766 | 31.11° C | 24% | 954.2 hPa | - | - | - | - |
| 1777409643 | 31.11° C | 24% | 954.2 hPa | - | - | - | - |
| 1777405105 | 31.11° C | 22% | 954.3 hPa | - | - | - | - |
| 1777400600 | 38.33° C | 16% | 954 hPa | - | - | - | - |
| 1777395230 | 45° C | 14% | 955.2 hPa | - | - | - | - |
| 1777392527 | 43.89° C | 13% | 955.8 hPa | - | - | - | - |
| 1777388923 | 41.67° C | 14% | 956.3 hPa | - | - | - | - |
| 1777387121 | 40° C | 15% | 956.5 hPa | - | - | - | - |
| 1777383516 | 28.89° C | 26% | 956.4 hPa | - | - | - | - |
| 1777381714 | 21.67° C | 35% | 956.5 hPa | - | - | - | - |
| 1777378110 | 16.11° C | 44% | 956.2 hPa | - | - | - | - |
| 1777377208 | 17.78° C | 41% | 956.1 hPa | - | - | - | - |
| 1777375893 | 15.56° C | 47% | 955.9 hPa | - | - | - | - |
| 1777374992 | 15.56° C | 48% | 955.9 hPa | - | - | - | - |
| 1777373190 | 15° C | 49% | 956.1 hPa | - | - | - | - |
| 1777372288 | 15.56° C | 49% | 956.1 hPa | - | - | - | - |
| 1777371387 | 15° C | 49% | 956 hPa | - | - | - | - |
| 1777370486 | 15.56° C | 49% | 956.1 hPa | - | - | - | - |
| 1777369586 | 15° C | 50% | 956 hPa | - | - | - | - |
| 1777368684 | 15° C | 50% | 956.1 hPa | - | - | - | - |
| 1777367783 | 15° C | 50% | 955.9 hPa | - | - | - | - |
| 1777366882 | 17.22° C | 41% | 956.1 hPa | - | - | - | - |
| 1777365981 | 17.78° C | 40% | 956 hPa | - | - | - | - |
| 1777365080 | 18.33° C | 39% | 956.3 hPa | - | - | - | - |
| 1777364241 | 18.33° C | 39% | 956.5 hPa | - | - | - | - |
* Rain since midnight (hover to see other rain measurements)
** Current wind speed in m/s (hover to see current wind gust speed)